CheckWX is a tool to help pilots better visualize weather data.  It is not intended as a substitute for an official pre-flight weather briefing.

08:45:56 UTC

FBMN METAR
Maun Airport
Maun, Botswana
Current

46 mins ago

FBMN 230800Z 08011KT CAVOK 25/17 Q1020
Observed
Apr-23 @ 08:00 UTC
Wind
  • 080° at 11 KTS
Visibility
10,000+ meters
Flight Rules
VFR
Cloud Levels
  • Clear skies
Temperature
25°C / 77°F
Dewpoint
17°C / 63°F
Humidity
61%
Altimeter
30.12" Hg
Pressure
1019.92 hPa
Previous

2 hours ago

FBMN 230700Z 11008KT CAVOK 22/16 Q1019
Observed
Apr-23 @ 07:00 UTC
Wind
  • 110° at 8 KTS
Visibility
10,000+ meters
Flight Rules
VFR
Cloud Levels
  • Clear skies
Temperature
22°C / 72°F
Dewpoint
16°C / 61°F
Humidity
69%
Altimeter
30.09" Hg
Pressure
1018.92 hPa
Previous

3 hours ago

FBMN 230600Z 13008KT CAVOK 19/16 Q1019
Observed
Apr-23 @ 06:00 UTC
Wind
  • 130° at 8 KTS
Visibility
10,000+ meters
Flight Rules
VFR
Cloud Levels
  • Clear skies
Temperature
19°C / 66°F
Dewpoint
16°C / 61°F
Humidity
83%
Altimeter
30.09" Hg
Pressure
1018.92 hPa